sensor_id;sensor_type;location;lat;lon;timestamp;P1;durP1;ratioP1;P2;durP2;ratioP2
35150;SDS011;55720;51.972;4.624;2023-05-23T00:02:11;29.33;;;10.63;;
35150;SDS011;55720;51.972;4.624;2023-05-23T00:04:37;21.40;;;9.30;;
35150;SDS011;55720;51.972;4.624;2023-05-23T00:07:03;24.92;;;9.98;;
35150;SDS011;55720;51.972;4.624;2023-05-23T00:09:28;17.95;;;9.13;;
35150;SDS011;55720;51.972;4.624;2023-05-23T00:11:53;24.23;;;9.32;;
35150;SDS011;55720;51.972;4.624;2023-05-23T00:14:19;19.15;;;8.43;;
35150;SDS011;55720;51.972;4.624;2023-05-23T00:16:44;18.85;;;6.88;;
35150;SDS011;55720;51.972;4.624;2023-05-23T00:19:11;15.13;;;6.88;;
35150;SDS011;55720;51.972;4.624;2023-05-23T00:21:36;14.85;;;6.82;;
35150;SDS011;55720;51.972;4.624;2023-05-23T00:24:02;9.38;;;6.22;;
35150;SDS011;55720;51.972;4.624;2023-05-23T00:26:28;9.85;;;6.38;;
35150;SDS011;55720;51.972;4.624;2023-05-23T00:28:54;12.20;;;6.38;;
35150;SDS011;55720;51.972;4.624;2023-05-23T00:31:20;13.10;;;6.22;;
35150;SDS011;55720;51.972;4.624;2023-05-23T00:33:45;11.27;;;6.30;;
35150;SDS011;55720;51.972;4.624;2023-05-23T00:36:10;10.65;;;5.78;;
35150;SDS011;55720;51.972;4.624;2023-05-23T00:38:37;10.43;;;6.38;;
35150;SDS011;55720;51.972;4.624;2023-05-23T00:41:03;16.35;;;6.07;;
35150;SDS011;55720;51.972;4.624;2023-05-23T00:43:28;11.45;;;6.25;;
35150;SDS011;55720;51.972;4.624;2023-05-23T00:45:54;9.48;;;5.65;;
35150;SDS011;55720;51.972;4.624;2023-05-23T00:48:19;12.68;;;5.53;;
35150;SDS011;55720;51.972;4.624;2023-05-23T00:50:44;17.40;;;6.70;;
35150;SDS011;55720;51.972;4.624;2023-05-23T00:53:10;16.17;;;6.82;;
35150;SDS011;55720;51.972;4.624;2023-05-23T00:55:36;22.95;;;6.70;;
35150;SDS011;55720;51.972;4.624;2023-05-23T00:58:03;17.42;;;6.43;;
35150;SDS011;55720;51.972;4.624;2023-05-23T01:00:28;22.80;;;6.65;;
35150;SDS011;55720;51.972;4.624;2023-05-23T01:02:54;15.52;;;6.40;;
35150;SDS011;55720;51.972;4.624;2023-05-23T01:05:20;12.55;;;6.65;;
35150;SDS011;55720;51.972;4.624;2023-05-23T01:07:47;15.82;;;7.57;;
35150;SDS011;55720;51.972;4.624;2023-05-23T01:10:12;24.73;;;7.10;;
35150;SDS011;55720;51.972;4.624;2023-05-23T01:15:16;15.45;;;5.82;;
35150;SDS011;55720;51.972;4.624;2023-05-23T01:17:49;16.65;;;6.65;;
35150;SDS011;55720;51.972;4.624;2023-05-23T01:20:18;10.88;;;5.25;;
35150;SDS011;55720;51.972;4.624;2023-05-23T01:28:09;7.28;;;3.55;;
35150;SDS011;55720;51.972;4.624;2023-05-23T01:30:37;7.78;;;3.60;;
35150;SDS011;55720;51.972;4.624;2023-05-23T01:33:03;3.80;;;2.50;;
35150;SDS011;55720;51.972;4.624;2023-05-23T01:35:28;5.90;;;3.13;;
35150;SDS011;55720;51.972;4.624;2023-05-23T01:37:55;7.25;;;3.28;;
35150;SDS011;55720;51.972;4.624;2023-05-23T01:40:21;6.70;;;3.15;;
35150;SDS011;55720;51.972;4.624;2023-05-23T01:42:46;5.10;;;2.50;;
35150;SDS011;55720;51.972;4.624;2023-05-23T01:45:12;5.63;;;2.25;;
35150;SDS011;55720;51.972;4.624;2023-05-23T01:47:38;3.78;;;2.10;;
35150;SDS011;55720;51.972;4.624;2023-05-23T01:50:05;2.58;;;1.80;;
35150;SDS011;55720;51.972;4.624;2023-05-23T01:52:30;3.50;;;1.23;;
35150;SDS011;55720;51.972;4.624;2023-05-23T01:54:55;1.65;;;0.95;;
35150;SDS011;55720;51.972;4.624;2023-05-23T01:57:21;2.38;;;1.60;;
35150;SDS011;55720;51.972;4.624;2023-05-23T01:59:46;1.67;;;1.27;;
35150;SDS011;55720;51.972;4.624;2023-05-23T02:02:11;1.35;;;0.70;;
35150;SDS011;55720;51.972;4.624;2023-05-23T02:04:37;1.00;;;0.85;;
35150;SDS011;55720;51.972;4.624;2023-05-23T02:07:02;1.10;;;0.75;;
35150;SDS011;55720;51.972;4.624;2023-05-23T02:09:28;1.05;;;0.47;;
35150;SDS011;55720;51.972;4.624;2023-05-23T02:11:53;1.10;;;0.77;;
35150;SDS011;55720;51.972;4.624;2023-05-23T02:14:18;1.35;;;0.80;;
35150;SDS011;55720;51.972;4.624;2023-05-23T02:16:43;1.80;;;1.58;;
35150;SDS011;55720;51.972;4.624;2023-05-23T02:19:09;1.40;;;0.98;;
35150;SDS011;55720;51.972;4.624;2023-05-23T02:21:35;2.55;;;0.85;;
35150;SDS011;55720;51.972;4.624;2023-05-23T02:24:00;3.43;;;1.07;;
35150;SDS011;55720;51.972;4.624;2023-05-23T02:26:25;1.47;;;1.30;;
35150;SDS011;55720;51.972;4.624;2023-05-23T02:28:51;0.57;;;0.38;;
35150;SDS011;55720;51.972;4.624;2023-05-23T02:31:16;1.17;;;0.77;;
35150;SDS011;55720;51.972;4.624;2023-05-23T02:33:41;3.07;;;1.63;;
35150;SDS011;55720;51.972;4.624;2023-05-23T02:36:07;1.10;;;0.90;;
35150;SDS011;55720;51.972;4.624;2023-05-23T02:38:32;1.10;;;0.93;;
35150;SDS011;55720;51.972;4.624;2023-05-23T02:40:57;1.38;;;1.13;;
35150;SDS011;55720;51.972;4.624;2023-05-23T02:43:23;0.77;;;0.75;;
35150;SDS011;55720;51.972;4.624;2023-05-23T02:45:48;1.35;;;0.98;;
35150;SDS011;55720;51.972;4.624;2023-05-23T02:48:13;0.37;;;0.37;;
35150;SDS011;55720;51.972;4.624;2023-05-23T02:50:38;1.75;;;0.75;;
35150;SDS011;55720;51.972;4.624;2023-05-23T02:53:03;1.07;;;0.77;;
35150;SDS011;55720;51.972;4.624;2023-05-23T02:55:29;0.47;;;0.40;;
35150;SDS011;55720;51.972;4.624;2023-05-23T02:57:55;0.55;;;0.50;;
35150;SDS011;55720;51.972;4.624;2023-05-23T03:00:21;0.77;;;0.60;;
35150;SDS011;55720;51.972;4.624;2023-05-23T03:02:46;0.80;;;0.80;;
35150;SDS011;55720;51.972;4.624;2023-05-23T03:05:11;0.40;;;0.40;;
35150;SDS011;55720;51.972;4.624;2023-05-23T03:07:36;1.17;;;0.87;;
35150;SDS011;55720;51.972;4.624;2023-05-23T03:10:02;0.55;;;0.55;;
35150;SDS011;55720;51.972;4.624;2023-05-23T03:12:27;2.20;;;2.10;;
35150;SDS011;55720;51.972;4.624;2023-05-23T03:14:53;0.57;;;0.57;;
35150;SDS011;55720;51.972;4.624;2023-05-23T03:17:18;0.47;;;0.47;;
35150;SDS011;55720;51.972;4.624;2023-05-23T03:19:43;3.40;;;0.80;;
35150;SDS011;55720;51.972;4.624;2023-05-23T03:22:09;0.55;;;0.35;;
35150;SDS011;55720;51.972;4.624;2023-05-23T03:24:34;0.40;;;0.30;;
35150;SDS011;55720;51.972;4.624;2023-05-23T03:26:59;0.95;;;0.75;;
35150;SDS011;55720;51.972;4.624;2023-05-23T03:29:25;1.27;;;0.40;;
35150;SDS011;55720;51.972;4.624;2023-05-23T03:31:51;0.32;;;0.30;;
35150;SDS011;55720;51.972;4.624;2023-05-23T03:34:16;0.20;;;0.13;;
35150;SDS011;55720;51.972;4.624;2023-05-23T03:36:41;0.80;;;0.57;;
35150;SDS011;55720;51.972;4.624;2023-05-23T03:39:07;0.35;;;0.35;;
35150;SDS011;55720;51.972;4.624;2023-05-23T03:41:32;0.40;;;0.40;;
35150;SDS011;55720;51.972;4.624;2023-05-23T03:43:57;0.70;;;0.50;;
35150;SDS011;55720;51.972;4.624;2023-05-23T03:46:22;0.50;;;0.50;;
35150;SDS011;55720;51.972;4.624;2023-05-23T03:48:47;0.77;;;0.77;;
35150;SDS011;55720;51.972;4.624;2023-05-23T03:51:13;0.45;;;0.45;;
35150;SDS011;55720;51.972;4.624;2023-05-23T03:53:38;0.80;;;0.80;;
35150;SDS011;55720;51.972;4.624;2023-05-23T03:56:03;0.50;;;0.50;;
35150;SDS011;55720;51.972;4.624;2023-05-23T03:58:29;0.73;;;0.63;;
35150;SDS011;55720;51.972;4.624;2023-05-23T04:00:54;1.10;;;0.60;;
35150;SDS011;55720;51.972;4.624;2023-05-23T04:03:19;0.67;;;0.67;;
35150;SDS011;55720;51.972;4.624;2023-05-23T04:05:45;0.40;;;0.30;;
35150;SDS011;55720;51.972;4.624;2023-05-23T04:08:10;0.45;;;0.45;;
35150;SDS011;55720;51.972;4.624;2023-05-23T04:10:35;1.15;;;0.93;;
35150;SDS011;55720;51.972;4.624;2023-05-23T04:13:00;0.95;;;0.95;;
35150;SDS011;55720;51.972;4.624;2023-05-23T04:15:26;0.67;;;0.30;;
35150;SDS011;55720;51.972;4.624;2023-05-23T04:17:52;0.40;;;0.30;;
35150;SDS011;55720;51.972;4.624;2023-05-23T04:20:17;1.08;;;1.00;;
35150;SDS011;55720;51.972;4.624;2023-05-23T04:22:42;0.73;;;0.70;;
35150;SDS011;55720;51.972;4.624;2023-05-23T04:25:08;1.80;;;1.27;;
35150;SDS011;55720;51.972;4.624;2023-05-23T04:27:33;0.82;;;0.47;;
35150;SDS011;55720;51.972;4.624;2023-05-23T04:29:58;0.70;;;0.47;;
35150;SDS011;55720;51.972;4.624;2023-05-23T04:32:24;0.73;;;0.73;;
35150;SDS011;55720;51.972;4.624;2023-05-23T04:34:50;1.23;;;0.57;;
35150;SDS011;55720;51.972;4.624;2023-05-23T04:37:16;0.38;;;0.38;;
35150;SDS011;55720;51.972;4.624;2023-05-23T04:39:41;0.60;;;0.60;;
35150;SDS011;55720;51.972;4.624;2023-05-23T04:42:06;2.08;;;0.47;;
35150;SDS011;55720;51.972;4.624;2023-05-23T04:44:32;0.90;;;0.90;;
35150;SDS011;55720;51.972;4.624;2023-05-23T04:46:57;0.50;;;0.38;;
35150;SDS011;55720;51.972;4.624;2023-05-23T04:49:23;0.80;;;0.80;;
35150;SDS011;55720;51.972;4.624;2023-05-23T04:51:48;1.40;;;0.73;;
35150;SDS011;55720;51.972;4.624;2023-05-23T04:54:13;0.73;;;0.73;;
35150;SDS011;55720;51.972;4.624;2023-05-23T04:56:38;0.60;;;0.60;;
35150;SDS011;55720;51.972;4.624;2023-05-23T04:59:04;1.58;;;1.48;;
35150;SDS011;55720;51.972;4.624;2023-05-23T05:01:29;1.02;;;0.50;;
35150;SDS011;55720;51.972;4.624;2023-05-23T05:03:55;0.88;;;0.50;;
35150;SDS011;55720;51.972;4.624;2023-05-23T05:06:21;0.75;;;0.40;;
35150;SDS011;55720;51.972;4.624;2023-05-23T05:08:46;1.02;;;0.93;;
35150;SDS011;55720;51.972;4.624;2023-05-23T05:11:11;1.15;;;1.05;;
35150;SDS011;55720;51.972;4.624;2023-05-23T05:13:37;1.40;;;1.05;;
35150;SDS011;55720;51.972;4.624;2023-05-23T05:16:02;0.70;;;0.70;;
35150;SDS011;55720;51.972;4.624;2023-05-23T05:18:28;1.05;;;0.73;;
35150;SDS011;55720;51.972;4.624;2023-05-23T05:20:53;0.88;;;0.55;;
35150;SDS011;55720;51.972;4.624;2023-05-23T05:23:20;1.20;;;0.60;;
35150;SDS011;55720;51.972;4.624;2023-05-23T05:25:47;0.57;;;0.57;;
35150;SDS011;55720;51.972;4.624;2023-05-23T05:28:13;1.40;;;0.70;;
35150;SDS011;55720;51.972;4.624;2023-05-23T05:30:38;0.80;;;0.65;;
35150;SDS011;55720;51.972;4.624;2023-05-23T05:33:04;0.50;;;0.47;;
35150;SDS011;55720;51.972;4.624;2023-05-23T05:35:33;1.20;;;0.70;;
35150;SDS011;55720;51.972;4.624;2023-05-23T05:37:59;1.25;;;0.52;;
35150;SDS011;55720;51.972;4.624;2023-05-23T05:40:24;1.80;;;1.58;;
35150;SDS011;55720;51.972;4.624;2023-05-23T05:42:50;1.17;;;0.70;;
35150;SDS011;55720;51.972;4.624;2023-05-23T05:45:15;1.13;;;0.98;;
35150;SDS011;55720;51.972;4.624;2023-05-23T05:47:40;0.60;;;0.60;;
35150;SDS011;55720;51.972;4.624;2023-05-23T05:50:06;0.40;;;0.40;;
35150;SDS011;55720;51.972;4.624;2023-05-23T05:52:33;1.48;;;0.75;;
35150;SDS011;55720;51.972;4.624;2023-05-23T05:55:03;1.00;;;0.60;;
35150;SDS011;55720;51.972;4.624;2023-05-23T05:57:28;1.20;;;1.10;;
35150;SDS011;55720;51.972;4.624;2023-05-23T05:59:53;1.70;;;0.60;;
35150;SDS011;55720;51.972;4.624;2023-05-23T06:02:18;0.40;;;0.40;;
35150;SDS011;55720;51.972;4.624;2023-05-23T06:04:44;0.50;;;0.50;;
35150;SDS011;55720;51.972;4.624;2023-05-23T06:07:09;0.57;;;0.57;;
35150;SDS011;55720;51.972;4.624;2023-05-23T06:09:35;1.67;;;0.60;;
35150;SDS011;55720;51.972;4.624;2023-05-23T06:12:00;0.65;;;0.60;;
35150;SDS011;55720;51.972;4.624;2023-05-23T06:14:26;0.88;;;0.50;;
35150;SDS011;55720;51.972;4.624;2023-05-23T06:16:52;0.98;;;0.32;;
35150;SDS011;55720;51.972;4.624;2023-05-23T06:19:17;1.57;;;0.70;;
35150;SDS011;55720;51.972;4.624;2023-05-23T06:21:42;0.40;;;0.40;;
35150;SDS011;55720;51.972;4.624;2023-05-23T06:24:07;0.53;;;0.47;;
35150;SDS011;55720;51.972;4.624;2023-05-23T06:26:32;0.20;;;0.20;;
35150;SDS011;55720;51.972;4.624;2023-05-23T06:28:58;0.73;;;0.60;;
35150;SDS011;55720;51.972;4.624;2023-05-23T06:31:23;0.20;;;0.20;;
35150;SDS011;55720;51.972;4.624;2023-05-23T06:33:48;0.23;;;0.13;;
35150;SDS011;55720;51.972;4.624;2023-05-23T06:36:13;0.38;;;0.25;;
35150;SDS011;55720;51.972;4.624;2023-05-23T06:38:38;0.17;;;0.17;;
35150;SDS011;55720;51.972;4.624;2023-05-23T06:41:04;1.42;;;0.40;;
35150;SDS011;55720;51.972;4.624;2023-05-23T06:43:31;0.45;;;0.40;;
35150;SDS011;55720;51.972;4.624;2023-05-23T06:45:56;0.47;;;0.40;;
35150;SDS011;55720;51.972;4.624;2023-05-23T06:48:21;0.40;;;0.40;;
35150;SDS011;55720;51.972;4.624;2023-05-23T06:50:46;0.17;;;0.17;;
35150;SDS011;55720;51.972;4.624;2023-05-23T06:53:11;0.10;;;0.10;;
35150;SDS011;55720;51.972;4.624;2023-05-23T06:55:37;0.60;;;0.52;;
35150;SDS011;55720;51.972;4.624;2023-05-23T06:58:02;1.57;;;1.47;;
35150;SDS011;55720;51.972;4.624;2023-05-23T07:00:30;1.02;;;0.38;;
35150;SDS011;55720;51.972;4.624;2023-05-23T07:02:55;0.30;;;0.20;;
35150;SDS011;55720;51.972;4.624;2023-05-23T07:05:25;0.30;;;0.30;;
35150;SDS011;55720;51.972;4.624;2023-05-23T07:07:50;0.20;;;0.20;;
35150;SDS011;55720;51.972;4.624;2023-05-23T07:10:15;0.43;;;0.43;;
35150;SDS011;55720;51.972;4.624;2023-05-23T07:12:41;0.27;;;0.27;;
35150;SDS011;55720;51.972;4.624;2023-05-23T07:15:06;0.20;;;0.10;;
35150;SDS011;55720;51.972;4.624;2023-05-23T07:17:31;0.10;;;0.10;;
35150;SDS011;55720;51.972;4.624;2023-05-23T07:19:57;0.50;;;0.50;;
35150;SDS011;55720;51.972;4.624;2023-05-23T07:22:22;1.23;;;0.20;;
35150;SDS011;55720;51.972;4.624;2023-05-23T07:24:47;0.10;;;0.10;;
35150;SDS011;55720;51.972;4.624;2023-05-23T07:27:12;0.60;;;0.60;;
35150;SDS011;55720;51.972;4.624;2023-05-23T07:29:38;0.20;;;0.10;;
35150;SDS011;55720;51.972;4.624;2023-05-23T07:32:03;2.33;;;0.20;;
35150;SDS011;55720;51.972;4.624;2023-05-23T07:34:28;2.38;;;0.30;;
35150;SDS011;55720;51.972;4.624;2023-05-23T07:36:54;3.90;;;0.40;;
35150;SDS011;55720;51.972;4.624;2023-05-23T07:39:19;0.80;;;0.30;;
35150;SDS011;55720;51.972;4.624;2023-05-23T07:41:46;0.20;;;0.20;;
35150;SDS011;55720;51.972;4.624;2023-05-23T07:44:12;0.52;;;0.20;;
35150;SDS011;55720;51.972;4.624;2023-05-23T07:46:37;3.27;;;1.23;;
35150;SDS011;55720;51.972;4.624;2023-05-23T07:49:02;1.23;;;0.20;;
35150;SDS011;55720;51.972;4.624;2023-05-23T07:51:27;1.23;;;0.35;;
35150;SDS011;55720;51.972;4.624;2023-05-23T07:53:53;0.90;;;0.20;;
35150;SDS011;55720;51.972;4.624;2023-05-23T07:56:18;0.30;;;0.20;;
35150;SDS011;55720;51.972;4.624;2023-05-23T07:58:43;0.30;;;0.30;;
35150;SDS011;55720;51.972;4.624;2023-05-23T08:01:08;0.70;;;0.63;;
35150;SDS011;55720;51.972;4.624;2023-05-23T08:03:34;0.60;;;0.53;;
35150;SDS011;55720;51.972;4.624;2023-05-23T08:05:59;0.45;;;0.28;;
35150;SDS011;55720;51.972;4.624;2023-05-23T08:08:24;0.85;;;0.20;;
35150;SDS011;55720;51.972;4.624;2023-05-23T08:10:50;2.43;;;0.63;;
35150;SDS011;55720;51.972;4.624;2023-05-23T08:13:15;1.40;;;0.30;;
35150;SDS011;55720;51.972;4.624;2023-05-23T08:15:40;0.93;;;0.50;;
35150;SDS011;55720;51.972;4.624;2023-05-23T08:18:05;4.43;;;0.40;;
35150;SDS011;55720;51.972;4.624;2023-05-23T08:20:30;0.10;;;0.10;;
35150;SDS011;55720;51.972;4.624;2023-05-23T08:23:02;1.70;;;0.30;;
35150;SDS011;55720;51.972;4.624;2023-05-23T08:25:28;0.22;;;0.20;;
35150;SDS011;55720;51.972;4.624;2023-05-23T08:27:57;0.30;;;0.28;;
35150;SDS011;55720;51.972;4.624;2023-05-23T08:30:23;0.50;;;0.35;;
35150;SDS011;55720;51.972;4.624;2023-05-23T08:32:49;2.15;;;1.10;;
35150;SDS011;55720;51.972;4.624;2023-05-23T08:35:14;0.68;;;0.30;;
35150;SDS011;55720;51.972;4.624;2023-05-23T08:37:40;0.40;;;0.37;;
35150;SDS011;55720;51.972;4.624;2023-05-23T08:40:06;0.40;;;0.20;;
35150;SDS011;55720;51.972;4.624;2023-05-23T08:42:32;0.43;;;0.43;;
35150;SDS011;55720;51.972;4.624;2023-05-23T08:44:57;0.47;;;0.30;;
35150;SDS011;55720;51.972;4.624;2023-05-23T08:47:23;0.43;;;0.43;;
35150;SDS011;55720;51.972;4.624;2023-05-23T08:49:49;0.90;;;0.15;;
35150;SDS011;55720;51.972;4.624;2023-05-23T08:52:14;2.67;;;0.65;;
35150;SDS011;55720;51.972;4.624;2023-05-23T08:54:42;2.15;;;0.50;;
35150;SDS011;55720;51.972;4.624;2023-05-23T08:57:08;0.75;;;0.38;;
35150;SDS011;55720;51.972;4.624;2023-05-23T08:59:33;1.48;;;0.30;;
35150;SDS011;55720;51.972;4.624;2023-05-23T09:01:59;1.05;;;0.93;;
35150;SDS011;55720;51.972;4.624;2023-05-23T09:04:24;0.25;;;0.25;;
35150;SDS011;55720;51.972;4.624;2023-05-23T09:06:49;2.13;;;0.40;;
35150;SDS011;55720;51.972;4.624;2023-05-23T09:09:14;1.93;;;0.50;;
35150;SDS011;55720;51.972;4.624;2023-05-23T09:11:40;0.20;;;0.20;;
35150;SDS011;55720;51.972;4.624;2023-05-23T09:14:05;0.25;;;0.25;;
35150;SDS011;55720;51.972;4.624;2023-05-23T09:16:32;1.65;;;0.40;;
35150;SDS011;55720;51.972;4.624;2023-05-23T09:18:58;0.95;;;0.22;;
35150;SDS011;55720;51.972;4.624;2023-05-23T09:21:24;2.00;;;0.52;;
35150;SDS011;55720;51.972;4.624;2023-05-23T09:23:49;4.05;;;0.75;;
35150;SDS011;55720;51.972;4.624;2023-05-23T09:26:15;1.33;;;0.50;;
35150;SDS011;55720;51.972;4.624;2023-05-23T09:28:40;0.90;;;0.43;;
35150;SDS011;55720;51.972;4.624;2023-05-23T09:31:06;2.38;;;0.60;;
35150;SDS011;55720;51.972;4.624;2023-05-23T09:36:02;1.80;;;0.30;;
35150;SDS011;55720;51.972;4.624;2023-05-23T09:38:27;0.30;;;0.10;;
35150;SDS011;55720;51.972;4.624;2023-05-23T09:40:53;0.65;;;0.50;;
35150;SDS011;55720;51.972;4.624;2023-05-23T09:43:20;0.45;;;0.30;;
35150;SDS011;55720;51.972;4.624;2023-05-23T09:45:45;1.15;;;0.95;;
35150;SDS011;55720;51.972;4.624;2023-05-23T09:48:11;1.00;;;0.60;;
35150;SDS011;55720;51.972;4.624;2023-05-23T09:50:37;0.55;;;0.30;;
35150;SDS011;55720;51.972;4.624;2023-05-23T09:53:03;1.08;;;0.90;;
35150;SDS011;55720;51.972;4.624;2023-05-23T09:55:28;0.70;;;0.70;;
35150;SDS011;55720;51.972;4.624;2023-05-23T09:57:53;0.25;;;0.22;;
35150;SDS011;55720;51.972;4.624;2023-05-23T10:00:20;3.15;;;0.68;;
35150;SDS011;55720;51.972;4.624;2023-05-23T10:05:32;2.70;;;0.60;;
35150;SDS011;55720;51.972;4.624;2023-05-23T10:07:59;1.77;;;0.52;;
35150;SDS011;55720;51.972;4.624;2023-05-23T10:10:25;0.77;;;0.43;;
35150;SDS011;55720;51.972;4.624;2023-05-23T10:12:53;3.08;;;0.50;;
35150;SDS011;55720;51.972;4.624;2023-05-23T10:15:19;2.53;;;0.38;;
35150;SDS011;55720;51.972;4.624;2023-05-23T10:17:51;1.15;;;0.40;;
35150;SDS011;55720;51.972;4.624;2023-05-23T10:20:17;0.68;;;0.30;;
35150;SDS011;55720;51.972;4.624;2023-05-23T10:22:45;0.65;;;0.50;;
35150;SDS011;55720;51.972;4.624;2023-05-23T10:25:12;1.08;;;0.38;;
35150;SDS011;55720;51.972;4.624;2023-05-23T10:27:38;1.77;;;0.55;;
35150;SDS011;55720;51.972;4.624;2023-05-23T10:30:07;1.15;;;0.65;;
35150;SDS011;55720;51.972;4.624;2023-05-23T10:32:33;2.00;;;1.33;;
35150;SDS011;55720;51.972;4.624;2023-05-23T10:35:01;1.85;;;1.17;;
35150;SDS011;55720;51.972;4.624;2023-05-23T10:37:34;0.93;;;0.75;;
35150;SDS011;55720;51.972;4.624;2023-05-23T10:40:04;0.13;;;0.13;;
35150;SDS011;55720;51.972;4.624;2023-05-23T10:45:21;0.88;;;0.40;;
35150;SDS011;55720;51.972;4.624;2023-05-23T10:47:47;0.50;;;0.30;;
35150;SDS011;55720;51.972;4.624;2023-05-23T10:50:13;0.60;;;0.28;;
35150;SDS011;55720;51.972;4.624;2023-05-23T10:52:41;0.47;;;0.40;;
35150;SDS011;55720;51.972;4.624;2023-05-23T10:55:15;0.52;;;0.47;;
35150;SDS011;55720;51.972;4.624;2023-05-23T10:57:42;0.60;;;0.47;;
35150;SDS011;55720;51.972;4.624;2023-05-23T11:00:16;0.57;;;0.30;;
35150;SDS011;55720;51.972;4.624;2023-05-23T11:02:45;0.25;;;0.20;;
35150;SDS011;55720;51.972;4.624;2023-05-23T11:07:43;0.73;;;0.25;;
35150;SDS011;55720;51.972;4.624;2023-05-23T11:10:09;1.58;;;0.40;;
35150;SDS011;55720;51.972;4.624;2023-05-23T11:12:36;0.55;;;0.30;;
35150;SDS011;55720;51.972;4.624;2023-05-23T11:15:01;0.55;;;0.30;;
35150;SDS011;55720;51.972;4.624;2023-05-23T11:17:30;0.70;;;0.22;;
35150;SDS011;55720;51.972;4.624;2023-05-23T11:22:27;0.50;;;0.38;;
35150;SDS011;55720;51.972;4.624;2023-05-23T11:24:56;0.50;;;0.40;;
35150;SDS011;55720;51.972;4.624;2023-05-23T11:27:29;0.20;;;0.20;;
35150;SDS011;55720;51.972;4.624;2023-05-23T11:29:59;0.30;;;0.30;;
35150;SDS011;55720;51.972;4.624;2023-05-23T11:32:26;3.13;;;0.50;;
35150;SDS011;55720;51.972;4.624;2023-05-23T11:34:51;0.45;;;0.45;;
35150;SDS011;55720;51.972;4.624;2023-05-23T11:37:17;0.82;;;0.60;;
35150;SDS011;55720;51.972;4.624;2023-05-23T11:39:42;2.50;;;0.38;;
35150;SDS011;55720;51.972;4.624;2023-05-23T11:42:07;1.97;;;0.40;;
35150;SDS011;55720;51.972;4.624;2023-05-23T11:44:33;0.77;;;0.32;;
35150;SDS011;55720;51.972;4.624;2023-05-23T11:46:59;2.65;;;0.30;;
35150;SDS011;55720;51.972;4.624;2023-05-23T11:49:26;0.80;;;0.30;;
35150;SDS011;55720;51.972;4.624;2023-05-23T11:51:51;0.30;;;0.20;;
35150;SDS011;55720;51.972;4.624;2023-05-23T11:54:16;0.53;;;0.30;;
35150;SDS011;55720;51.972;4.624;2023-05-23T11:56:46;0.30;;;0.30;;
35150;SDS011;55720;51.972;4.624;2023-05-23T11:59:11;0.87;;;0.50;;
35150;SDS011;55720;51.972;4.624;2023-05-23T12:01:36;0.38;;;0.20;;
35150;SDS011;55720;51.972;4.624;2023-05-23T12:04:08;0.70;;;0.38;;
35150;SDS011;55720;51.972;4.624;2023-05-23T12:06:33;0.25;;;0.25;;
35150;SDS011;55720;51.972;4.624;2023-05-23T12:08:59;0.60;;;0.47;;
35150;SDS011;55720;51.972;4.624;2023-05-23T12:11:24;0.10;;;0.10;;
35150;SDS011;55720;51.972;4.624;2023-05-23T12:13:51;1.17;;;0.73;;
35150;SDS011;55720;51.972;4.624;2023-05-23T12:16:16;0.25;;;0.20;;
35150;SDS011;55720;51.972;4.624;2023-05-23T12:18:41;0.60;;;0.60;;
35150;SDS011;55720;51.972;4.624;2023-05-23T12:21:07;2.15;;;0.30;;
35150;SDS011;55720;51.972;4.624;2023-05-23T12:23:32;1.38;;;0.20;;
35150;SDS011;55720;51.972;4.624;2023-05-23T12:25:57;0.68;;;0.30;;
35150;SDS011;55720;51.972;4.624;2023-05-23T12:28:36;0.63;;;0.60;;
35150;SDS011;55720;51.972;4.624;2023-05-23T12:31:23;0.30;;;0.20;;
35150;SDS011;55720;51.972;4.624;2023-05-23T12:33:47;0.55;;;0.20;;
35150;SDS011;55720;51.972;4.624;2023-05-23T12:36:20;0.40;;;0.20;;
35150;SDS011;55720;51.972;4.624;2023-05-23T12:38:46;0.38;;;0.30;;
35150;SDS011;55720;51.972;4.624;2023-05-23T12:41:14;0.70;;;0.65;;
35150;SDS011;55720;51.972;4.624;2023-05-23T12:43:40;2.05;;;0.88;;
35150;SDS011;55720;51.972;4.624;2023-05-23T12:46:06;1.33;;;0.30;;
35150;SDS011;55720;51.972;4.624;2023-05-23T12:48:32;0.20;;;0.20;;
35150;SDS011;55720;51.972;4.624;2023-05-23T12:50:57;0.20;;;0.20;;
35150;SDS011;55720;51.972;4.624;2023-05-23T12:53:27;0.30;;;0.30;;
35150;SDS011;55720;51.972;4.624;2023-05-23T12:55:53;2.05;;;0.60;;
35150;SDS011;55720;51.972;4.624;2023-05-23T12:58:18;0.17;;;0.13;;
35150;SDS011;55720;51.972;4.624;2023-05-23T13:00:43;0.35;;;0.35;;
35150;SDS011;55720;51.972;4.624;2023-05-23T13:03:08;3.60;;;0.28;;
35150;SDS011;55720;51.972;4.624;2023-05-23T13:05:34;0.50;;;0.40;;
35150;SDS011;55720;51.972;4.624;2023-05-23T13:07:59;1.23;;;0.32;;
35150;SDS011;55720;51.972;4.624;2023-05-23T13:10:25;0.15;;;0.10;;
35150;SDS011;55720;51.972;4.624;2023-05-23T13:12:50;0.63;;;0.20;;
35150;SDS011;55720;51.972;4.624;2023-05-23T13:15:15;0.68;;;0.30;;
35150;SDS011;55720;51.972;4.624;2023-05-23T13:17:41;0.50;;;0.50;;
35150;SDS011;55720;51.972;4.624;2023-05-23T13:20:06;0.60;;;0.50;;
35150;SDS011;55720;51.972;4.624;2023-05-23T13:22:33;0.20;;;0.20;;
35150;SDS011;55720;51.972;4.624;2023-05-23T13:24:58;0.57;;;0.57;;
35150;SDS011;55720;51.972;4.624;2023-05-23T13:27:23;0.25;;;0.25;;
35150;SDS011;55720;51.972;4.624;2023-05-23T13:29:49;1.17;;;0.28;;
35150;SDS011;55720;51.972;4.624;2023-05-23T13:32:14;0.95;;;0.40;;
35150;SDS011;55720;51.972;4.624;2023-05-23T13:34:40;0.35;;;0.10;;
35150;SDS011;55720;51.972;4.624;2023-05-23T13:37:05;1.33;;;0.40;;
35150;SDS011;55720;51.972;4.624;2023-05-23T13:39:31;1.55;;;0.30;;
35150;SDS011;55720;51.972;4.624;2023-05-23T13:41:56;0.43;;;0.43;;
35150;SDS011;55720;51.972;4.624;2023-05-23T13:44:21;0.20;;;0.20;;
35150;SDS011;55720;51.972;4.624;2023-05-23T13:46:47;0.85;;;0.47;;
35150;SDS011;55720;51.972;4.624;2023-05-23T13:49:12;0.93;;;0.10;;
35150;SDS011;55720;51.972;4.624;2023-05-23T13:51:37;1.48;;;0.60;;
35150;SDS011;55720;51.972;4.624;2023-05-23T13:54:03;7.55;;;0.30;;
35150;SDS011;55720;51.972;4.624;2023-05-23T13:56:28;3.38;;;0.30;;
35150;SDS011;55720;51.972;4.624;2023-05-23T13:58:54;2.83;;;0.45;;
35150;SDS011;55720;51.972;4.624;2023-05-23T14:01:19;0.65;;;0.32;;
35150;SDS011;55720;51.972;4.624;2023-05-23T14:03:44;0.10;;;0.10;;
35150;SDS011;55720;51.972;4.624;2023-05-23T14:06:10;1.48;;;0.30;;
35150;SDS011;55720;51.972;4.624;2023-05-23T14:08:35;1.47;;;0.23;;
35150;SDS011;55720;51.972;4.624;2023-05-23T14:11:00;1.20;;;0.10;;
35150;SDS011;55720;51.972;4.624;2023-05-23T14:13:26;1.15;;;0.63;;
35150;SDS011;55720;51.972;4.624;2023-05-23T14:15:51;0.55;;;0.40;;
35150;SDS011;55720;51.972;4.624;2023-05-23T14:18:18;2.13;;;0.30;;
35150;SDS011;55720;51.972;4.624;2023-05-23T14:20:43;0.28;;;0.10;;
35150;SDS011;55720;51.972;4.624;2023-05-23T14:23:08;1.45;;;0.35;;
35150;SDS011;55720;51.972;4.624;2023-05-23T14:25:34;0.80;;;0.70;;
35150;SDS011;55720;51.972;4.624;2023-05-23T14:27:59;0.20;;;0.20;;
35150;SDS011;55720;51.972;4.624;2023-05-23T14:30:24;3.17;;;0.30;;
35150;SDS011;55720;51.972;4.624;2023-05-23T14:32:50;0.37;;;0.20;;
35150;SDS011;55720;51.972;4.624;2023-05-23T14:35:15;0.63;;;0.50;;
35150;SDS011;55720;51.972;4.624;2023-05-23T14:37:40;0.73;;;0.50;;
35150;SDS011;55720;51.972;4.624;2023-05-23T14:40:05;4.20;;;0.55;;
35150;SDS011;55720;51.972;4.624;2023-05-23T14:42:31;1.45;;;0.30;;
35150;SDS011;55720;51.972;4.624;2023-05-23T14:44:56;3.45;;;1.05;;
35150;SDS011;55720;51.972;4.624;2023-05-23T14:47:22;0.75;;;0.75;;
35150;SDS011;55720;51.972;4.624;2023-05-23T14:49:48;0.15;;;0.15;;
35150;SDS011;55720;51.972;4.624;2023-05-23T14:52:13;0.38;;;0.22;;
35150;SDS011;55720;51.972;4.624;2023-05-23T14:54:38;0.35;;;0.20;;
35150;SDS011;55720;51.972;4.624;2023-05-23T14:57:08;0.50;;;0.30;;
35150;SDS011;55720;51.972;4.624;2023-05-23T14:59:33;0.82;;;0.52;;